イヌヴィック の空港の天気 - METARとTAF

イヌヴィック空港 ( CYEV / YEV ) - カナダ ノースウエスト準州イヌヴィック
飛行場実況気象(Metar)
観測時間07/16 00:00 MDT (07/16 06:00 UTC)
風向・風速南西 3m/s
視程10km以上
天気現象
少しの雲 雲底高度 1070m
全天の4割程度の雲 雲底高度 3660m
全天の4割程度の雲 雲底高度 7620m
気温18℃
湿度60%
気圧1001.5hPa
METARCYEV 160600Z 23006KT 15SM FEW035 SCT120 SCT250 18/10 A2956 RMK CU2AC1CI1 SLP015 DENSITY ALT 1100FT
過去の天気等 Google飛行場航空写真 Wunderground天気予報

過去48時間のMETAR

飛行場予報(TAF)
発表時間: 7/15 18:38 MDT (7/16 00:38 UTC)
予報対象時間: 15日19時 MDT ~ 16日7時 MDT
風向・風速西 4m/s
視程10km以上
全天の4割程度の雲 雲底高度 1830m
15日19時 MDT ~ 16日6時 MDT に一時的に
視程10km以上
天気現象弱いしゅう雨
全天の8割程度の雲 雲底高度 1830m
16日1時 MDT ~ 16日3時 MDT に徐々に
風向・風速北西 4m/s
16日6時 MDT から
風向・風速西北西 3m/s
視程10km以上
全天の4割程度の雲 雲底高度 370m
全天の4割程度の雲 雲底高度 1520m
TAF CYEV 160038Z 1601/1613 28008KT P6SM SCT060
TEMPO 1601/1612 P6SM -SHRA BKN060
BECMG 1607/1609 32008KT
FM161200 30006KT P6SM SCT012 SCT050 RMK NXT FCST BY 160700Z